Huangpi, China
Current Conditions -  °F | °C
As of 5:00 PM on Saturday 22 Nov 2014 (Local Time) from ZHHH Reporting Station
Haze Haze  
Wind Chill: 68°   Ceiling: Unl
Heat Index: 68°   Visibility: 2.5mi
Dew Point: 50°   Wind: 7mph
Humidity: 52%   Direction: 80°E
Pressure: 30.03"   Gusts: NA
Location:  30.87°N, 114.36°E
Report Text: ZHHH 220900Z 08003MPS 4000 HZ NSC 20/10 Q1017 NOSIG
Loading
Personal Weather Stations






























Interactive Weather Map New forecast layout! Learn more

10-Day Weather Forecast

Advertisements
Track Severe Weather on mobile